sensor_id;sensor_type;location;lat;lon;timestamp;pressure;altitude;pressure_sealevel;temperature;humidity
10261;BME280;5175;42.606;23.388;2023-04-29T00:00:28;93680.31;;;5.04;73.13
10261;BME280;5175;42.606;23.388;2023-04-29T00:02:54;93724.97;;;5.22;75.28
10261;BME280;5175;42.606;23.388;2023-04-29T00:05:21;93733.03;;;5.11;76.99
10261;BME280;5175;42.606;23.388;2023-04-29T00:07:48;93816.59;;;5.55;78.46
10261;BME280;5175;42.606;23.388;2023-04-29T00:10:15;93839.56;;;5.71;78.12
10261;BME280;5175;42.606;23.388;2023-04-29T00:12:42;93798.13;;;5.82;77.41
10261;BME280;5175;42.606;23.388;2023-04-29T00:15:11;93734.06;;;5.10;77.63
10261;BME280;5175;42.606;23.388;2023-04-29T00:17:38;93714.03;;;4.75;78.47
10261;BME280;5175;42.606;23.388;2023-04-29T00:20:06;93665.06;;;4.68;77.87
10261;BME280;5175;42.606;23.388;2023-04-29T00:22:34;93778.53;;;5.56;77.49
10261;BME280;5175;42.606;23.388;2023-04-29T00:25:00;93798.28;;;5.48;79.53
10261;BME280;5175;42.606;23.388;2023-04-29T00:27:28;93689.09;;;4.66;79.89
10261;BME280;5175;42.606;23.388;2023-04-29T00:29:55;93808.34;;;5.30;79.50
10261;BME280;5175;42.606;23.388;2023-04-29T00:32:24;93837.22;;;5.53;78.21
10261;BME280;5175;42.606;23.388;2023-04-29T00:34:51;93756.16;;;5.20;75.97
10261;BME280;5175;42.606;23.388;2023-04-29T00:37:17;93855.75;;;5.53;77.09
10261;BME280;5175;42.606;23.388;2023-04-29T00:39:45;93797.66;;;5.20;76.31
10261;BME280;5175;42.606;23.388;2023-04-29T00:42:12;93793.34;;;5.14;76.22
10261;BME280;5175;42.606;23.388;2023-04-29T00:44:38;93681.09;;;4.23;77.01
10261;BME280;5175;42.606;23.388;2023-04-29T00:47:05;93814.00;;;5.17;76.75
10261;BME280;5175;42.606;23.388;2023-04-29T00:49:37;93697.91;;;4.55;75.59
10261;BME280;5175;42.606;23.388;2023-04-29T00:52:04;93787.44;;;5.06;76.75
10261;BME280;5175;42.606;23.388;2023-04-29T00:54:32;93823.19;;;5.31;76.19
10261;BME280;5175;42.606;23.388;2023-04-29T00:57:00;93674.56;;;4.47;75.88
10261;BME280;5175;42.606;23.388;2023-04-29T00:59:28;93814.03;;;5.38;75.24
10261;BME280;5175;42.606;23.388;2023-04-29T01:01:58;93675.63;;;4.46;74.46
10261;BME280;5175;42.606;23.388;2023-04-29T01:04:25;93804.56;;;5.21;74.85
10261;BME280;5175;42.606;23.388;2023-04-29T01:07:00;93796.66;;;5.04;75.99
10261;BME280;5175;42.606;23.388;2023-04-29T01:09:42;93803.88;;;4.92;77.02
10261;BME280;5175;42.606;23.388;2023-04-29T01:12:17;93751.63;;;4.77;77.54
10261;BME280;5175;42.606;23.388;2023-04-29T01:14:53;93792.50;;;5.08;76.88
10261;BME280;5175;42.606;23.388;2023-04-29T01:17:30;93726.34;;;4.65;77.26
10261;BME280;5175;42.606;23.388;2023-04-29T01:20:03;93760.13;;;5.01;77.20
10261;BME280;5175;42.606;23.388;2023-04-29T01:22:33;93770.81;;;5.11;78.14
10261;BME280;5175;42.606;23.388;2023-04-29T01:25:02;93772.50;;;5.17;77.87
10261;BME280;5175;42.606;23.388;2023-04-29T01:27:33;93788.56;;;5.32;77.88
10261;BME280;5175;42.606;23.388;2023-04-29T01:30:08;93733.53;;;4.91;81.98
10261;BME280;5175;42.606;23.388;2023-04-29T01:32:46;93773.94;;;4.86;84.86
10261;BME280;5175;42.606;23.388;2023-04-29T01:35:29;93700.34;;;4.40;82.79
10261;BME280;5175;42.606;23.388;2023-04-29T01:38:06;93760.91;;;4.80;80.96
10261;BME280;5175;42.606;23.388;2023-04-29T01:40:42;93748.78;;;4.62;80.39
10261;BME280;5175;42.606;23.388;2023-04-29T01:43:14;93795.81;;;4.82;79.71
10261;BME280;5175;42.606;23.388;2023-04-29T01:45:42;93756.38;;;4.59;79.06
10261;BME280;5175;42.606;23.388;2023-04-29T01:48:09;93769.03;;;4.95;78.73
10261;BME280;5175;42.606;23.388;2023-04-29T01:50:37;93747.84;;;4.73;80.26
10261;BME280;5175;42.606;23.388;2023-04-29T01:53:04;93660.59;;;4.30;78.40
10261;BME280;5175;42.606;23.388;2023-04-29T01:55:32;93738.91;;;4.96;77.90
10261;BME280;5175;42.606;23.388;2023-04-29T01:58:00;93740.63;;;5.07;77.54
10261;BME280;5175;42.606;23.388;2023-04-29T02:00:27;93717.31;;;5.04;78.57
10261;BME280;5175;42.606;23.388;2023-04-29T02:02:54;93737.47;;;4.88;82.75
10261;BME280;5175;42.606;23.388;2023-04-29T02:05:21;93782.47;;;4.93;85.33
10261;BME280;5175;42.606;23.388;2023-04-29T02:07:48;93704.25;;;4.54;85.67
10261;BME280;5175;42.606;23.388;2023-04-29T02:10:15;93682.03;;;4.33;85.85
10261;BME280;5175;42.606;23.388;2023-04-29T02:12:42;93639.72;;;4.12;87.71
10261;BME280;5175;42.606;23.388;2023-04-29T02:15:10;93767.34;;;4.67;90.10
10261;BME280;5175;42.606;23.388;2023-04-29T02:17:37;93759.00;;;4.59;92.03
10261;BME280;5175;42.606;23.388;2023-04-29T02:20:05;93771.25;;;4.48;94.53
10261;BME280;5175;42.606;23.388;2023-04-29T02:22:33;93594.50;;;3.20;94.54
10261;BME280;5175;42.606;23.388;2023-04-29T02:24:59;93779.59;;;4.57;94.21
10261;BME280;5175;42.606;23.388;2023-04-29T02:27:26;93780.72;;;4.44;94.04
10261;BME280;5175;42.606;23.388;2023-04-29T02:29:53;93770.38;;;4.59;93.97
10261;BME280;5175;42.606;23.388;2023-04-29T02:32:22;93664.66;;;3.83;94.32
10261;BME280;5175;42.606;23.388;2023-04-29T02:34:49;93764.13;;;4.32;94.84
10261;BME280;5175;42.606;23.388;2023-04-29T02:37:16;93703.03;;;3.90;95.51
10261;BME280;5175;42.606;23.388;2023-04-29T02:39:43;93770.69;;;4.29;96.79
10261;BME280;5175;42.606;23.388;2023-04-29T02:42:10;93659.91;;;3.51;96.79
10261;BME280;5175;42.606;23.388;2023-04-29T02:44:37;93664.94;;;3.69;96.48
10261;BME280;5175;42.606;23.388;2023-04-29T02:47:05;93769.03;;;4.23;96.20
10261;BME280;5175;42.606;23.388;2023-04-29T02:49:34;93656.69;;;3.49;95.67
10261;BME280;5175;42.606;23.388;2023-04-29T02:52:01;93668.03;;;3.50;96.00
10261;BME280;5175;42.606;23.388;2023-04-29T02:54:28;93690.59;;;3.74;94.37
10261;BME280;5175;42.606;23.388;2023-04-29T02:56:56;93715.25;;;3.79;93.37
10261;BME280;5175;42.606;23.388;2023-04-29T02:59:23;93789.44;;;4.28;92.95
10261;BME280;5175;42.606;23.388;2023-04-29T03:01:50;93799.19;;;4.27;94.59
10261;BME280;5175;42.606;23.388;2023-04-29T03:04:19;93639.75;;;3.45;94.61
10261;BME280;5175;42.606;23.388;2023-04-29T03:06:47;93799.75;;;4.46;93.95
10261;BME280;5175;42.606;23.388;2023-04-29T03:09:14;93823.59;;;4.34;93.80
10261;BME280;5175;42.606;23.388;2023-04-29T03:11:41;93821.84;;;4.23;93.63
10261;BME280;5175;42.606;23.388;2023-04-29T03:14:08;93768.03;;;3.79;93.97
10261;BME280;5175;42.606;23.388;2023-04-29T03:16:35;93802.13;;;3.98;96.27
10261;BME280;5175;42.606;23.388;2023-04-29T03:19:02;93780.31;;;3.46;100.00
10261;BME280;5175;42.606;23.388;2023-04-29T03:21:29;93766.38;;;3.22;100.00
10261;BME280;5175;42.606;23.388;2023-04-29T03:23:58;93799.22;;;3.43;97.30
10261;BME280;5175;42.606;23.388;2023-04-29T03:26:25;93777.22;;;3.37;96.92
10261;BME280;5175;42.606;23.388;2023-04-29T03:28:52;93663.38;;;2.84;96.46
10261;BME280;5175;42.606;23.388;2023-04-29T03:31:19;93589.28;;;1.89;96.48
10261;BME280;5175;42.606;23.388;2023-04-29T03:33:47;93802.06;;;3.53;96.42
10261;BME280;5175;42.606;23.388;2023-04-29T03:36:15;93810.50;;;3.66;95.96
10261;BME280;5175;42.606;23.388;2023-04-29T03:38:42;93693.19;;;2.84;95.60
10261;BME280;5175;42.606;23.388;2023-04-29T03:41:11;93727.78;;;2.76;96.04
10261;BME280;5175;42.606;23.388;2023-04-29T03:43:38;93709.84;;;2.62;96.53
10261;BME280;5175;42.606;23.388;2023-04-29T03:46:05;93821.53;;;3.63;96.62
10261;BME280;5175;42.606;23.388;2023-04-29T03:48:32;93819.53;;;3.42;96.59
10261;BME280;5175;42.606;23.388;2023-04-29T03:50:59;93756.09;;;3.09;96.68
10261;BME280;5175;42.606;23.388;2023-04-29T03:53:26;93738.03;;;3.01;96.13
10261;BME280;5175;42.606;23.388;2023-04-29T03:55:53;93818.25;;;3.85;96.14
10261;BME280;5175;42.606;23.388;2023-04-29T03:58:21;93730.56;;;3.09;96.22
10261;BME280;5175;42.606;23.388;2023-04-29T04:00:49;93827.25;;;4.00;96.89
10261;BME280;5175;42.606;23.388;2023-04-29T04:03:16;93816.78;;;4.05;96.33
10261;BME280;5175;42.606;23.388;2023-04-29T04:05:43;93742.22;;;3.53;96.12
10261;BME280;5175;42.606;23.388;2023-04-29T04:08:10;93815.72;;;4.06;96.48
10261;BME280;5175;42.606;23.388;2023-04-29T04:10:37;93814.44;;;3.92;96.32
10261;BME280;5175;42.606;23.388;2023-04-29T04:13:04;93812.09;;;3.96;96.19
10261;BME280;5175;42.606;23.388;2023-04-29T04:15:33;93816.53;;;3.78;96.51
10261;BME280;5175;42.606;23.388;2023-04-29T04:18:05;93776.06;;;3.45;96.90
10261;BME280;5175;42.606;23.388;2023-04-29T04:20:35;93807.44;;;3.58;97.24
10261;BME280;5175;42.606;23.388;2023-04-29T04:23:03;93660.31;;;2.75;97.26
10261;BME280;5175;42.606;23.388;2023-04-29T04:25:30;93798.31;;;3.77;97.15
10261;BME280;5175;42.606;23.388;2023-04-29T04:27:57;93813.72;;;3.97;97.11
10261;BME280;5175;42.606;23.388;2023-04-29T04:30:24;93816.38;;;4.13;97.33
10261;BME280;5175;42.606;23.388;2023-04-29T04:32:52;93694.47;;;3.38;97.06
10261;BME280;5175;42.606;23.388;2023-04-29T04:35:19;93819.22;;;4.57;97.01
10261;BME280;5175;42.606;23.388;2023-04-29T04:37:46;93767.09;;;4.19;97.32
10261;BME280;5175;42.606;23.388;2023-04-29T04:40:13;93747.66;;;4.25;97.41
10261;BME280;5175;42.606;23.388;2023-04-29T04:42:40;93786.59;;;4.68;97.30
10261;BME280;5175;42.606;23.388;2023-04-29T04:45:08;93793.63;;;4.95;97.11
10261;BME280;5175;42.606;23.388;2023-04-29T04:47:36;93756.66;;;4.79;96.10
10261;BME280;5175;42.606;23.388;2023-04-29T04:50:06;93805.03;;;5.39;96.32
10261;BME280;5175;42.606;23.388;2023-04-29T04:52:34;93757.84;;;5.10;96.64
10261;BME280;5175;42.606;23.388;2023-04-29T04:55:01;93788.31;;;5.55;96.18
10261;BME280;5175;42.606;23.388;2023-04-29T04:57:28;93708.00;;;5.18;95.61
10261;BME280;5175;42.606;23.388;2023-04-29T04:59:54;93826.09;;;5.94;95.37
10261;BME280;5175;42.606;23.388;2023-04-29T05:02:22;93844.78;;;6.09;94.72
10261;BME280;5175;42.606;23.388;2023-04-29T05:04:49;93689.72;;;5.17;94.30
10261;BME280;5175;42.606;23.388;2023-04-29T05:07:17;93819.91;;;6.10;94.97
10261;BME280;5175;42.606;23.388;2023-04-29T05:09:44;93814.25;;;6.02;95.35
10261;BME280;5175;42.606;23.388;2023-04-29T05:12:11;93816.78;;;6.13;95.34
10261;BME280;5175;42.606;23.388;2023-04-29T05:14:38;93772.38;;;5.72;95.45
10261;BME280;5175;42.606;23.388;2023-04-29T05:17:05;93790.91;;;5.99;95.32
10261;BME280;5175;42.606;23.388;2023-04-29T05:19:34;93794.28;;;6.16;95.58
10261;BME280;5175;42.606;23.388;2023-04-29T05:22:01;93746.13;;;6.24;93.16
10261;BME280;5175;42.606;23.388;2023-04-29T05:24:29;93765.44;;;6.19;93.46
10261;BME280;5175;42.606;23.388;2023-04-29T05:26:56;93723.38;;;5.96;93.57
10261;BME280;5175;42.606;23.388;2023-04-29T05:29:23;93791.25;;;6.66;93.14
10261;BME280;5175;42.606;23.388;2023-04-29T05:31:51;93732.59;;;6.20;93.41
10261;BME280;5175;42.606;23.388;2023-04-29T05:34:18;93779.28;;;6.58;94.24
10261;BME280;5175;42.606;23.388;2023-04-29T05:36:45;93726.25;;;6.58;93.31
10261;BME280;5175;42.606;23.388;2023-04-29T05:39:12;93767.09;;;6.99;93.19
10261;BME280;5175;42.606;23.388;2023-04-29T05:41:40;93755.28;;;7.27;91.04
10261;BME280;5175;42.606;23.388;2023-04-29T05:44:07;93730.69;;;7.41;87.18
10261;BME280;5175;42.606;23.388;2023-04-29T05:46:35;93659.97;;;7.05;87.41
10261;BME280;5175;42.606;23.388;2023-04-29T05:49:02;93736.38;;;7.70;86.06
10261;BME280;5175;42.606;23.388;2023-04-29T05:51:29;93638.78;;;7.10;84.72
10261;BME280;5175;42.606;23.388;2023-04-29T05:53:56;93708.75;;;7.71;84.26
10261;BME280;5175;42.606;23.388;2023-04-29T05:56:24;93690.97;;;7.87;84.37
10261;BME280;5175;42.606;23.388;2023-04-29T05:58:53;93761.75;;;8.53;81.10
10261;BME280;5175;42.606;23.388;2023-04-29T06:01:19;93787.81;;;8.56;79.55
10261;BME280;5175;42.606;23.388;2023-04-29T06:03:46;93766.81;;;8.60;77.79
10261;BME280;5175;42.606;23.388;2023-04-29T06:06:13;93771.06;;;8.56;76.83
10261;BME280;5175;42.606;23.388;2023-04-29T06:08:40;93731.69;;;8.68;77.84
10261;BME280;5175;42.606;23.388;2023-04-29T06:11:07;93802.63;;;9.43;77.24
10261;BME280;5175;42.606;23.388;2023-04-29T06:13:34;93803.84;;;9.71;74.39
10261;BME280;5175;42.606;23.388;2023-04-29T06:16:03;93668.84;;;9.02;73.79
10261;BME280;5175;42.606;23.388;2023-04-29T06:18:30;93765.94;;;9.89;73.06
10261;BME280;5175;42.606;23.388;2023-04-29T06:20:57;93748.53;;;10.01;72.11
10261;BME280;5175;42.606;23.388;2023-04-29T06:23:24;93786.19;;;10.44;69.05
10261;BME280;5175;42.606;23.388;2023-04-29T06:25:51;93762.41;;;10.52;68.03
10261;BME280;5175;42.606;23.388;2023-04-29T06:28:17;93767.97;;;10.56;67.53
10261;BME280;5175;42.606;23.388;2023-04-29T06:30:45;93683.72;;;10.16;66.68
10261;BME280;5175;42.606;23.388;2023-04-29T06:33:13;93763.50;;;10.80;65.12
10261;BME280;5175;42.606;23.388;2023-04-29T06:35:40;93792.28;;;11.17;63.01
10261;BME280;5175;42.606;23.388;2023-04-29T06:38:07;93643.63;;;9.92;63.86
10261;BME280;5175;42.606;23.388;2023-04-29T06:40:34;93826.00;;;11.08;65.67
10261;BME280;5175;42.606;23.388;2023-04-29T06:43:01;93742.66;;;10.82;65.32
10261;BME280;5175;42.606;23.388;2023-04-29T06:45:29;93610.97;;;10.11;63.94
10261;BME280;5175;42.606;23.388;2023-04-29T06:47:55;93678.06;;;10.85;63.53
10261;BME280;5175;42.606;23.388;2023-04-29T06:50:24;93803.00;;;11.69;62.42
10261;BME280;5175;42.606;23.388;2023-04-29T06:52:51;93807.22;;;11.75;61.18
10261;BME280;5175;42.606;23.388;2023-04-29T06:55:18;93747.66;;;11.70;60.89
10261;BME280;5175;42.606;23.388;2023-04-29T06:57:45;93700.06;;;11.48;60.68
10261;BME280;5175;42.606;23.388;2023-04-29T07:00:12;93707.81;;;11.50;60.45
10261;BME280;5175;42.606;23.388;2023-04-29T07:02:40;93798.13;;;12.19;60.21
10261;BME280;5175;42.606;23.388;2023-04-29T07:05:08;93692.06;;;11.67;59.68
10261;BME280;5175;42.606;23.388;2023-04-29T07:07:36;93794.78;;;12.45;60.29
10261;BME280;5175;42.606;23.388;2023-04-29T07:10:04;93747.50;;;12.22;59.34
10261;BME280;5175;42.606;23.388;2023-04-29T07:12:31;93790.88;;;12.38;59.88
10261;BME280;5175;42.606;23.388;2023-04-29T07:14:58;93732.38;;;11.75;59.85
10261;BME280;5175;42.606;23.388;2023-04-29T07:17:28;93787.44;;;11.95;60.62
10261;BME280;5175;42.606;23.388;2023-04-29T07:19:55;93813.00;;;12.06;60.47
10261;BME280;5175;42.606;23.388;2023-04-29T07:22:22;93781.13;;;12.28;60.28
10261;BME280;5175;42.606;23.388;2023-04-29T07:24:53;93795.19;;;12.57;58.98
10261;BME280;5175;42.606;23.388;2023-04-29T07:27:21;93783.91;;;12.61;59.10
10261;BME280;5175;42.606;23.388;2023-04-29T07:29:48;93762.97;;;12.25;58.26
10261;BME280;5175;42.606;23.388;2023-04-29T07:32:15;93683.09;;;12.00;58.63
10261;BME280;5175;42.606;23.388;2023-04-29T07:34:42;93787.91;;;12.77;57.67
10261;BME280;5175;42.606;23.388;2023-04-29T07:37:09;93673.06;;;12.11;57.55
10261;BME280;5175;42.606;23.388;2023-04-29T07:39:36;93754.22;;;12.57;58.18
10261;BME280;5175;42.606;23.388;2023-04-29T07:42:04;93795.84;;;13.19;56.03
10261;BME280;5175;42.606;23.388;2023-04-29T07:44:31;93667.53;;;12.72;54.75
10261;BME280;5175;42.606;23.388;2023-04-29T07:46:58;93780.50;;;13.52;53.16
10261;BME280;5175;42.606;23.388;2023-04-29T07:49:25;93674.13;;;12.93;52.30
10261;BME280;5175;42.606;23.388;2023-04-29T07:51:52;93723.91;;;13.26;52.80
10261;BME280;5175;42.606;23.388;2023-04-29T07:54:19;93738.13;;;13.81;51.20
10261;BME280;5175;42.606;23.388;2023-04-29T07:56:46;93676.84;;;13.88;49.47
10261;BME280;5175;42.606;23.388;2023-04-29T07:59:15;93771.16;;;14.45;49.44
10261;BME280;5175;42.606;23.388;2023-04-29T08:01:42;93773.97;;;14.62;47.80
10261;BME280;5175;42.606;23.388;2023-04-29T08:04:09;93683.97;;;13.93;47.88
10261;BME280;5175;42.606;23.388;2023-04-29T08:06:36;93624.56;;;13.99;47.47
10261;BME280;5175;42.606;23.388;2023-04-29T08:09:03;93669.75;;;14.28;47.50
10261;BME280;5175;42.606;23.388;2023-04-29T08:11:29;93593.53;;;14.07;45.26
10261;BME280;5175;42.606;23.388;2023-04-29T08:13:57;93772.34;;;15.19;45.85
10261;BME280;5175;42.606;23.388;2023-04-29T08:16:26;93742.56;;;15.07;46.86
10261;BME280;5175;42.606;23.388;2023-04-29T08:18:53;93671.28;;;14.56;46.37
10261;BME280;5175;42.606;23.388;2023-04-29T08:21:20;93769.59;;;15.54;44.46
10261;BME280;5175;42.606;23.388;2023-04-29T08:23:47;93725.66;;;15.06;44.25
10261;BME280;5175;42.606;23.388;2023-04-29T08:26:14;93743.34;;;15.29;45.49
10261;BME280;5175;42.606;23.388;2023-04-29T08:28:41;93667.91;;;14.73;44.94
10261;BME280;5175;42.606;23.388;2023-04-29T08:31:15;93743.03;;;15.61;45.22
10261;BME280;5175;42.606;23.388;2023-04-29T08:33:44;93747.91;;;15.90;43.74
10261;BME280;5175;42.606;23.388;2023-04-29T08:36:11;93768.09;;;16.10;40.61
10261;BME280;5175;42.606;23.388;2023-04-29T08:38:38;93775.66;;;16.08;40.85
10261;BME280;5175;42.606;23.388;2023-04-29T08:41:06;93742.28;;;16.26;42.19
10261;BME280;5175;42.606;23.388;2023-04-29T08:43:34;93757.19;;;16.32;41.05
10261;BME280;5175;42.606;23.388;2023-04-29T08:46:02;93693.19;;;16.20;40.38
10261;BME280;5175;42.606;23.388;2023-04-29T08:48:30;93662.31;;;16.35;39.95
10261;BME280;5175;42.606;23.388;2023-04-29T08:50:59;93675.00;;;16.17;40.67
10261;BME280;5175;42.606;23.388;2023-04-29T08:53:27;93737.16;;;16.64;40.81
10261;BME280;5175;42.606;23.388;2023-04-29T08:55:57;93681.97;;;16.27;40.10
10261;BME280;5175;42.606;23.388;2023-04-29T08:58:27;93749.03;;;16.71;37.77
10261;BME280;5175;42.606;23.388;2023-04-29T09:00:55;93737.06;;;16.29;37.84
10261;BME280;5175;42.606;23.388;2023-04-29T09:03:26;93742.00;;;16.45;39.27
10261;BME280;5175;42.606;23.388;2023-04-29T09:05:59;93734.88;;;16.49;39.18
10261;BME280;5175;42.606;23.388;2023-04-29T09:08:27;93741.53;;;17.11;38.75
10261;BME280;5175;42.606;23.388;2023-04-29T09:10:54;93566.66;;;16.29;37.00
10261;BME280;5175;42.606;23.388;2023-04-29T09:13:23;93748.66;;;17.24;37.90
10261;BME280;5175;42.606;23.388;2023-04-29T09:15:50;93691.16;;;16.95;38.79
10261;BME280;5175;42.606;23.388;2023-04-29T09:18:43;93729.28;;;17.39;38.64
10261;BME280;5175;42.606;23.388;2023-04-29T09:21:16;93708.94;;;17.50;39.30
10261;BME280;5175;42.606;23.388;2023-04-29T09:23:45;93623.97;;;16.81;38.17
10261;BME280;5175;42.606;23.388;2023-04-29T09:26:12;93703.59;;;17.33;38.71
10261;BME280;5175;42.606;23.388;2023-04-29T09:28:39;93723.38;;;17.55;37.88
10261;BME280;5175;42.606;23.388;2023-04-29T09:31:09;93714.72;;;17.23;37.95
10261;BME280;5175;42.606;23.388;2023-04-29T09:33:50;93720.50;;;17.60;38.28
10261;BME280;5175;42.606;23.388;2023-04-29T09:36:41;93711.44;;;17.64;38.89
10261;BME280;5175;42.606;23.388;2023-04-29T09:39:11;93701.63;;;17.60;36.33
10261;BME280;5175;42.606;23.388;2023-04-29T09:41:39;93699.88;;;17.64;36.66
10261;BME280;5175;42.606;23.388;2023-04-29T09:44:08;93702.94;;;17.54;36.85
10261;BME280;5175;42.606;23.388;2023-04-29T09:46:35;93713.72;;;17.54;35.80
10261;BME280;5175;42.606;23.388;2023-04-29T09:49:03;93706.19;;;17.68;36.13
10261;BME280;5175;42.606;23.388;2023-04-29T09:51:30;93708.28;;;18.00;35.80
10261;BME280;5175;42.606;23.388;2023-04-29T09:54:00;93618.59;;;17.27;34.55
10261;BME280;5175;42.606;23.388;2023-04-29T09:56:48;93698.47;;;17.49;36.15
10261;BME280;5175;42.606;23.388;2023-04-29T09:59:16;93702.69;;;18.05;36.41
10261;BME280;5175;42.606;23.388;2023-04-29T10:01:43;93693.06;;;18.45;34.44
10261;BME280;5175;42.606;23.388;2023-04-29T10:04:10;93692.44;;;17.90;36.03
10261;BME280;5175;42.606;23.388;2023-04-29T10:06:40;93694.34;;;18.39;35.13
10261;BME280;5175;42.606;23.388;2023-04-29T10:09:12;93683.53;;;18.48;34.53
10261;BME280;5175;42.606;23.388;2023-04-29T10:11:41;93663.41;;;18.78;35.03
10261;BME280;5175;42.606;23.388;2023-04-29T10:14:12;93670.41;;;19.12;33.92
10261;BME280;5175;42.606;23.388;2023-04-29T10:16:45;93641.75;;;19.44;33.97
10261;BME280;5175;42.606;23.388;2023-04-29T10:19:26;93586.91;;;18.77;33.24
10261;BME280;5175;42.606;23.388;2023-04-29T10:21:59;93597.28;;;18.75;35.25
10261;BME280;5175;42.606;23.388;2023-04-29T10:24:34;93651.78;;;19.43;33.06
10261;BME280;5175;42.606;23.388;2023-04-29T10:27:06;93681.03;;;19.62;32.35
10261;BME280;5175;42.606;23.388;2023-04-29T10:29:36;93667.22;;;19.43;33.07
10261;BME280;5175;42.606;23.388;2023-04-29T10:32:06;93618.94;;;19.20;34.45
10261;BME280;5175;42.606;23.388;2023-04-29T10:34:36;93572.41;;;19.39;34.57
10261;BME280;5175;42.606;23.388;2023-04-29T10:37:03;93664.22;;;19.80;32.25
10261;BME280;5175;42.606;23.388;2023-04-29T10:39:38;93666.59;;;19.82;33.04
10261;BME280;5175;42.606;23.388;2023-04-29T10:42:16;93661.28;;;19.73;31.94
10261;BME280;5175;42.606;23.388;2023-04-29T10:45:17;93665.69;;;19.66;32.78
10261;BME280;5175;42.606;23.388;2023-04-29T10:48:08;93663.66;;;19.18;32.90
10261;BME280;5175;42.606;23.388;2023-04-29T10:50:40;93635.59;;;19.10;33.43
10261;BME280;5175;42.606;23.388;2023-04-29T10:53:26;93614.47;;;19.04;31.95
10261;BME280;5175;42.606;23.388;2023-04-29T10:55:57;93638.91;;;18.95;33.84
10261;BME280;5175;42.606;23.388;2023-04-29T11:01:12;93634.16;;;19.25;31.13
10261;BME280;5175;42.606;23.388;2023-04-29T11:03:48;93633.78;;;19.26;32.06
10261;BME280;5175;42.606;23.388;2023-04-29T11:06:19;93666.53;;;19.01;31.97
10261;BME280;5175;42.606;23.388;2023-04-29T11:08:46;93596.38;;;18.71;35.00
10261;BME280;5175;42.606;23.388;2023-04-29T11:11:15;93673.75;;;19.42;32.51
10261;BME280;5175;42.606;23.388;2023-04-29T11:13:45;93658.28;;;19.30;32.46
10261;BME280;5175;42.606;23.388;2023-04-29T11:16:13;93594.38;;;18.93;33.08
10261;BME280;5175;42.606;23.388;2023-04-29T11:19:04;93659.56;;;19.12;32.45
10261;BME280;5175;42.606;23.388;2023-04-29T11:21:33;93582.50;;;18.61;32.26
10261;BME280;5175;42.606;23.388;2023-04-29T11:24:00;93514.25;;;18.31;33.64
10261;BME280;5175;42.606;23.388;2023-04-29T11:26:29;93655.28;;;19.11;30.66
10261;BME280;5175;42.606;23.388;2023-04-29T11:28:56;93559.19;;;18.56;32.47
10261;BME280;5175;42.606;23.388;2023-04-29T11:31:29;93571.66;;;18.49;31.71
10261;BME280;5175;42.606;23.388;2023-04-29T11:33:57;93570.75;;;18.57;32.60
10261;BME280;5175;42.606;23.388;2023-04-29T11:36:24;93629.03;;;18.66;32.20
10261;BME280;5175;42.606;23.388;2023-04-29T11:38:52;93644.03;;;18.76;34.47
10261;BME280;5175;42.606;23.388;2023-04-29T11:41:19;93648.66;;;18.88;33.49
10261;BME280;5175;42.606;23.388;2023-04-29T11:43:54;93645.13;;;18.75;33.48
10261;BME280;5175;42.606;23.388;2023-04-29T11:46:22;93556.81;;;17.93;32.71
10261;BME280;5175;42.606;23.388;2023-04-29T11:48:49;93617.66;;;18.11;33.96
10261;BME280;5175;42.606;23.388;2023-04-29T11:51:17;93614.91;;;17.70;34.83
10261;BME280;5175;42.606;23.388;2023-04-29T11:53:45;93644.22;;;18.09;35.27
10261;BME280;5175;42.606;23.388;2023-04-29T11:56:12;93660.16;;;17.73;34.34
10261;BME280;5175;42.606;23.388;2023-04-29T11:58:41;93615.34;;;17.42;34.69
10261;BME280;5175;42.606;23.388;2023-04-29T12:01:10;93636.69;;;17.65;34.74
10261;BME280;5175;42.606;23.388;2023-04-29T12:03:36;93638.75;;;17.68;35.43
10261;BME280;5175;42.606;23.388;2023-04-29T12:06:03;93622.88;;;17.66;35.19
10261;BME280;5175;42.606;23.388;2023-04-29T12:08:30;93650.34;;;17.68;35.42
10261;BME280;5175;42.606;23.388;2023-04-29T12:10:59;93623.81;;;17.32;34.47
10261;BME280;5175;42.606;23.388;2023-04-29T12:13:29;93619.91;;;17.50;36.00
10261;BME280;5175;42.606;23.388;2023-04-29T12:15:56;93643.03;;;17.69;36.12
10261;BME280;5175;42.606;23.388;2023-04-29T12:18:25;93542.50;;;16.75;35.89
10261;BME280;5175;42.606;23.388;2023-04-29T12:20:53;93558.25;;;17.03;36.66
10261;BME280;5175;42.606;23.388;2023-04-29T12:23:22;93640.88;;;17.45;37.04
10261;BME280;5175;42.606;23.388;2023-04-29T12:25:52;93518.59;;;16.74;38.01
10261;BME280;5175;42.606;23.388;2023-04-29T12:28:20;93632.63;;;17.41;37.81
10261;BME280;5175;42.606;23.388;2023-04-29T12:30:48;93623.16;;;17.35;38.43
10261;BME280;5175;42.606;23.388;2023-04-29T12:33:17;93637.66;;;17.14;38.93
10261;BME280;5175;42.606;23.388;2023-04-29T12:35:48;93626.59;;;17.07;40.59
10261;BME280;5175;42.606;23.388;2023-04-29T12:38:18;93503.97;;;16.20;41.90
10261;BME280;5175;42.606;23.388;2023-04-29T12:40:45;93558.06;;;16.70;44.19
10261;BME280;5175;42.606;23.388;2023-04-29T12:43:12;93538.13;;;16.54;44.98
10261;BME280;5175;42.606;23.388;2023-04-29T12:45:39;93539.44;;;16.31;49.17
10261;BME280;5175;42.606;23.388;2023-04-29T12:48:06;93627.75;;;16.80;48.36
10261;BME280;5175;42.606;23.388;2023-04-29T12:50:34;93563.00;;;16.34;52.40
10261;BME280;5175;42.606;23.388;2023-04-29T12:53:04;93609.69;;;16.80;50.40
10261;BME280;5175;42.606;23.388;2023-04-29T12:55:32;93619.69;;;16.80;46.85
10261;BME280;5175;42.606;23.388;2023-04-29T12:58:00;93563.63;;;16.56;43.49
10261;BME280;5175;42.606;23.388;2023-04-29T13:00:27;93558.72;;;16.58;43.59
10261;BME280;5175;42.606;23.388;2023-04-29T13:02:55;93637.03;;;17.08;42.67
10261;BME280;5175;42.606;23.388;2023-04-29T13:05:23;93548.91;;;16.54;46.92
10261;BME280;5175;42.606;23.388;2023-04-29T13:07:50;93616.06;;;17.22;41.98
10261;BME280;5175;42.606;23.388;2023-04-29T13:10:18;93624.06;;;17.02;44.48
10261;BME280;5175;42.606;23.388;2023-04-29T13:12:45;93621.34;;;17.10;44.29
10261;BME280;5175;42.606;23.388;2023-04-29T13:15:12;93526.84;;;16.52;42.29